Time;durP1;ratioP1;P1;durP2;ratioP2;P2;SDS_P1;SDS_P2;PMS_P1;PMS_P2;Temp;Humidity;BMP_temperature;BMP_pressure;BME280_temperature;BME280_humidity;BME280_pressure;Samples;Min_cycle;Max_cycle;Signal;HPM_P1;HPM_P2
2021/04/26 00:01:24;;;;;;;3.13;0.32;;;22.40;34.20;;;;;;5048996;28;20035;-46
2021/04/26 00:03:50;;;;;;;1.13;0.22;;;22.40;34.20;;;;;;5033239;28;20033;-46
2021/04/26 00:06:16;;;;;;;1.98;0.30;;;22.40;34.20;;;;;;5047801;28;20039;-44
2021/04/26 00:08:41;;;;;;;3.90;0.30;;;22.40;34.20;;;;;;5044297;28;20132;-49
2021/04/26 00:11:07;;;;;;;1.30;0.30;;;22.40;34.20;;;;;;5048301;28;20025;-50
2021/04/26 00:13:33;;;;;;;2.70;0.20;;;22.40;34.20;;;;;;5039808;28;20078;-45
2021/04/26 00:15:58;;;;;;;0.82;0.50;;;22.40;34.20;;;;;;5042431;28;20120;-47
2021/04/26 00:18:24;;;;;;;0.90;0.22;;;22.40;34.30;;;;;;5039657;28;20041;-47
2021/04/26 00:20:50;;;;;;;0.57;0.28;;;22.30;34.20;;;;;;5040862;28;20030;-45
2021/04/26 00:23:15;;;;;;;2.00;0.30;;;22.30;34.20;;;;;;5041781;28;20028;-46
2021/04/26 00:25:41;;;;;;;0.93;0.30;;;22.40;34.20;;;;;;5039842;28;20029;-44
2021/04/26 00:28:07;;;;;;;0.55;0.17;;;22.40;34.30;;;;;;5044956;28;20028;-49
2021/04/26 00:30:33;;;;;;;1.95;0.50;;;22.30;34.20;;;;;;5047641;28;20025;-45
2021/04/26 00:32:59;;;;;;;0.55;0.20;;;22.30;34.20;;;;;;5045337;28;20104;-49
2021/04/26 00:35:26;;;;;;;1.38;0.20;;;22.30;34.10;;;;;;5045614;28;20379;-48
2021/04/26 00:37:52;;;;;;;0.75;0.25;;;22.30;34.10;;;;;;5044907;28;20110;-46
2021/04/26 00:40:19;;;;;;;0.63;0.22;;;22.30;34.10;;;;;;5041378;28;20789;-47
2021/04/26 00:42:45;;;;;;;2.05;0.70;;;22.30;34.20;;;;;;5043041;28;20033;-46
2021/04/26 00:45:14;;;;;;;2.47;0.30;;;22.30;34.20;;;;;;5047214;28;20016;-45
2021/04/26 00:47:41;;;;;;;1.00;0.30;;;22.30;34.20;;;;;;5045773;28;20032;-47
2021/04/26 00:50:09;;;;;;;2.00;0.20;;;22.30;34.20;;;;;;5047578;28;20522;-45
2021/04/26 00:52:35;;;;;;;0.57;0.22;;;22.30;34.20;;;;;;5036369;28;20025;-44
2021/04/26 00:55:02;;;;;;;1.60;0.40;;;22.30;34.10;;;;;;5043566;28;20024;-45
2021/04/26 00:57:28;;;;;;;0.85;0.20;;;22.30;34.20;;;;;;5047010;28;20040;-46
2021/04/26 00:59:53;;;;;;;0.50;0.30;;;22.30;34.10;;;;;;5049497;28;20025;-46
2021/04/26 01:02:19;;;;;;;1.70;0.25;;;22.20;34.10;;;;;;5042169;28;20022;-47
2021/04/26 01:04:45;;;;;;;0.95;0.30;;;22.20;34.10;;;;;;5029211;28;20101;-46
2021/04/26 01:07:11;;;;;;;1.25;0.30;;;22.20;34.10;;;;;;5039338;28;20025;-47
2021/04/26 01:09:36;;;;;;;1.02;0.30;;;22.20;34.10;;;;;;5044716;28;20032;-48
2021/04/26 01:12:05;;;;;;;1.05;0.20;;;22.20;34.10;;;;;;5046208;28;20036;-46
2021/04/26 01:14:39;;;;;;;1.85;0.20;;;22.20;34.10;;;;;;5045787;28;20028;-46
2021/04/26 01:17:17;;;;;;;1.58;0.40;;;22.20;34.10;;;;;;5032560;28;20044;-48
2021/04/26 01:20:09;;;;;;;0.90;0.30;;;22.20;34.10;;;;;;5047843;28;20045;-45
2021/04/26 01:22:55;;;;;;;1.48;0.30;;;22.20;34.10;;;;;;5042904;28;20130;-46
2021/04/26 01:25:23;;;;;;;1.00;0.30;;;22.20;34.10;;;;;;5040926;28;20037;-47
2021/04/26 01:28:09;;;;;;;1.25;0.20;;;22.20;34.10;;;;;;5035185;28;20105;-48
2021/04/26 01:30:43;;;;;;;1.10;0.30;;;22.20;34.10;;;;;;5039974;28;20036;-48
2021/04/26 01:33:13;;;;;;;0.63;0.28;;;22.10;34.00;;;;;;5046055;28;20033;-49
2021/04/26 01:35:40;;;;;;;0.90;0.20;;;22.20;34.10;;;;;;5045453;28;20599;-47
2021/04/26 01:38:21;;;;;;;0.82;0.20;;;22.10;34.10;;;;;;5044538;28;20033;-47
2021/04/26 01:40:50;;;;;;;1.08;0.10;;;22.10;34.00;;;;;;5047335;28;20025;-49
2021/04/26 01:43:20;;;;;;;1.20;0.40;;;22.10;34.00;;;;;;5045763;28;20021;-47
2021/04/26 01:45:46;;;;;;;1.15;0.22;;;22.10;34.00;;;;;;5045214;28;20025;-51
2021/04/26 01:48:13;;;;;;;1.10;0.20;;;22.10;34.00;;;;;;5042964;28;20546;-46
2021/04/26 01:50:39;;;;;;;0.90;0.45;;;22.10;34.00;;;;;;5040479;28;20048;-48
2021/04/26 01:53:06;;;;;;;1.20;0.30;;;22.10;34.00;;;;;;5049615;28;20036;-49
2021/04/26 01:55:32;;;;;;;0.90;0.30;;;22.10;34.00;;;;;;5044816;28;20032;-45
2021/04/26 01:58:00;;;;;;;1.48;0.40;;;22.10;34.00;;;;;;5050393;28;20629;-49
2021/04/26 02:00:30;;;;;;;1.20;0.20;;;22.10;34.00;;;;;;5043648;28;20612;-45
2021/04/26 02:02:57;;;;;;;0.80;0.20;;;22.10;34.00;;;;;;5049044;28;20032;-50
2021/04/26 02:05:25;;;;;;;1.63;0.30;;;22.10;34.00;;;;;;5050037;28;20768;-48
2021/04/26 02:07:52;;;;;;;0.80;0.20;;;22.00;34.00;;;;;;5045439;28;20032;-48
2021/04/26 02:10:21;;;;;;;0.93;0.32;;;22.00;34.00;;;;;;5048322;28;20032;-45
2021/04/26 02:12:48;;;;;;;0.65;0.20;;;22.00;34.00;;;;;;5045815;28;20033;-47
2021/04/26 02:15:19;;;;;;;0.57;0.15;;;22.10;34.00;;;;;;5049750;28;20021;-46
2021/04/26 02:17:47;;;;;;;1.40;0.25;;;22.00;33.90;;;;;;5046853;28;20037;-49
2021/04/26 02:20:15;;;;;;;1.45;0.20;;;22.00;33.90;;;;;;5034103;28;20029;-48
2021/04/26 02:22:41;;;;;;;0.88;0.20;;;22.00;33.90;;;;;;5046457;28;20075;-49
2021/04/26 02:25:10;;;;;;;1.05;0.20;;;22.00;33.90;;;;;;5039892;28;20037;-44
2021/04/26 02:27:36;;;;;;;1.42;0.20;;;22.00;33.90;;;;;;5046543;28;20052;-42
2021/04/26 02:30:04;;;;;;;0.60;0.20;;;22.00;34.00;;;;;;5045014;28;20056;-46
2021/04/26 02:32:54;;;;;;;1.20;0.25;;;22.00;33.90;;;;;;5048423;28;20033;-44
2021/04/26 02:35:26;;;;;;;0.38;0.13;;;22.00;33.90;;;;;;5041841;28;20055;-44
2021/04/26 02:37:59;;;;;;;1.60;0.22;;;22.00;33.90;;;;;;5047812;28;20503;-46
2021/04/26 02:40:26;;;;;;;1.40;0.13;;;22.00;33.90;;;;;;5037905;28;20039;-47
2021/04/26 02:42:56;;;;;;;2.38;0.40;;;22.00;34.00;;;;;;5043306;28;20030;-48
2021/04/26 02:45:26;;;;;;;0.60;0.10;;;21.90;33.90;;;;;;5048915;28;20573;-50
2021/04/26 02:47:53;;;;;;;0.50;0.10;;;22.00;34.00;;;;;;5047944;28;20059;-45
2021/04/26 02:50:22;;;;;;;0.70;0.10;;;21.90;33.90;;;;;;5035892;28;20082;-48
2021/04/26 02:52:50;;;;;;;0.73;0.10;;;21.90;33.90;;;;;;5052058;28;20037;-46
2021/04/26 02:55:16;;;;;;;0.40;0.17;;;21.90;33.90;;;;;;5033965;28;20555;-47
2021/04/26 02:57:42;;;;;;;0.50;0.35;;;21.90;33.90;;;;;;5045870;28;20083;-49
2021/04/26 03:00:15;;;;;;;1.65;0.20;;;21.90;33.90;;;;;;5048157;28;20028;-47
2021/04/26 03:02:42;;;;;;;0.60;0.10;;;21.90;33.90;;;;;;5040592;28;20029;-49
2021/04/26 03:05:10;;;;;;;1.33;0.10;;;21.90;33.90;;;;;;5049454;28;20060;-43
2021/04/26 03:07:36;;;;;;;0.73;0.20;;;21.90;33.90;;;;;;5040650;28;20441;-46
2021/04/26 03:10:08;;;;;;;0.80;0.20;;;21.90;33.90;;;;;;5047980;28;20486;-44
2021/04/26 03:12:37;;;;;;;0.30;0.10;;;21.90;33.90;;;;;;5045974;28;20367;-45
2021/04/26 03:15:05;;;;;;;1.92;0.20;;;21.90;33.90;;;;;;5047377;28;20029;-48
2021/04/26 03:17:31;;;;;;;0.80;0.20;;;21.90;33.90;;;;;;5047323;28;20058;-46
2021/04/26 03:19:58;;;;;;;0.40;0.10;;;21.90;33.90;;;;;;5047754;28;20030;-45
2021/04/26 03:22:24;;;;;;;2.10;0.20;;;21.90;33.90;;;;;;5051573;28;20029;-48
2021/04/26 03:24:50;;;;;;;0.95;0.10;;;21.80;33.80;;;;;;5048233;28;20021;-46
2021/04/26 03:27:21;;;;;;;0.68;0.20;;;21.90;33.80;;;;;;5047570;28;20051;-47
2021/04/26 03:29:50;;;;;;;0.40;0.10;;;21.90;33.90;;;;;;5039294;28;20075;-44
2021/04/26 03:32:16;;;;;;;1.63;0.20;;;21.90;33.90;;;;;;5041253;28;20115;-44
2021/04/26 03:34:42;;;;;;;1.30;0.10;;;21.80;33.80;;;;;;5041407;28;20105;-48
2021/04/26 03:37:16;;;;;;;0.55;0.20;;;21.80;33.80;;;;;;5048457;28;20041;-46
2021/04/26 03:39:44;;;;;;;0.82;0.13;;;21.80;33.80;;;;;;5042828;28;20075;-44
2021/04/26 03:42:11;;;;;;;0.55;0.10;;;21.80;33.80;;;;;;5046436;28;20047;-47
2021/04/26 03:44:36;;;;;;;0.35;0.10;;;21.80;33.80;;;;;;5043597;28;20029;-45
2021/04/26 03:47:04;;;;;;;1.83;0.20;;;21.80;33.80;;;;;;5048460;28;20025;-50
2021/04/26 03:49:30;;;;;;;0.30;0.10;;;21.80;33.80;;;;;;5038085;28;20079;-47
2021/04/26 03:51:56;;;;;;;0.90;0.10;;;21.80;33.80;;;;;;5046364;28;20393;-45
2021/04/26 03:54:22;;;;;;;0.30;0.10;;;21.80;33.80;;;;;;5046524;28;20522;-46
2021/04/26 03:56:48;;;;;;;1.77;0.10;;;21.80;33.80;;;;;;5039953;28;20029;-46
2021/04/26 03:59:14;;;;;;;1.02;0.20;;;21.80;33.80;;;;;;5033844;28;20040;-47
2021/04/26 04:01:40;;;;;;;0.60;0.10;;;21.80;33.80;;;;;;5047637;28;20668;-48
2021/04/26 04:04:06;;;;;;;0.43;0.10;;;21.80;33.80;;;;;;5046844;28;20033;-45
2021/04/26 04:06:32;;;;;;;1.35;0.10;;;21.80;33.80;;;;;;5048481;28;20029;-44
2021/04/26 04:08:59;;;;;;;0.35;0.10;;;21.70;33.80;;;;;;5043404;28;20088;-45
2021/04/26 04:11:25;;;;;;;0.40;0.10;;;21.70;33.80;;;;;;5047049;28;20048;-50
2021/04/26 04:13:51;;;;;;;2.03;0.17;;;21.70;33.80;;;;;;5046486;28;20487;-45
2021/04/26 04:16:16;;;;;;;0.57;0.15;;;21.70;33.80;;;;;;5042784;28;20456;-49
2021/04/26 04:18:42;;;;;;;0.80;0.10;;;21.70;33.80;;;;;;5045520;28;20436;-48
2021/04/26 04:21:08;;;;;;;0.63;0.10;;;21.70;33.80;;;;;;5041498;28;20083;-47
2021/04/26 04:23:33;;;;;;;2.17;0.00;;;21.70;33.80;;;;;;5045987;28;20027;-47
2021/04/26 04:25:59;;;;;;;1.17;0.10;;;21.70;33.80;;;;;;5046885;28;20082;-45
2021/04/26 04:28:25;;;;;;;0.30;0.10;;;21.70;33.80;;;;;;5047010;28;20031;-47
2021/04/26 04:30:50;;;;;;;0.10;0.00;;;21.70;33.80;;;;;;5047038;28;20034;-48
2021/04/26 04:33:16;;;;;;;0.47;0.10;;;21.60;33.70;;;;;;5045367;28;20056;-46
2021/04/26 04:35:42;;;;;;;0.30;0.10;;;21.70;33.80;;;;;;5047170;28;20502;-48
2021/04/26 04:38:07;;;;;;;1.58;0.08;;;21.70;33.80;;;;;;5047720;28;20100;-46
2021/04/26 04:40:33;;;;;;;0.40;0.10;;;21.70;33.80;;;;;;5045218;28;20025;-47
2021/04/26 04:42:59;;;;;;;2.20;0.10;;;21.60;33.70;;;;;;5035441;28;20052;-50
2021/04/26 04:45:24;;;;;;;0.55;0.10;;;21.70;33.70;;;;;;5047440;28;20087;-49
2021/04/26 04:47:50;;;;;;;0.90;0.10;;;21.60;33.70;;;;;;5045911;28;20006;-46
2021/04/26 04:50:16;;;;;;;0.73;0.22;;;21.60;33.70;;;;;;5040499;28;20033;-47
2021/04/26 04:52:41;;;;;;;1.17;0.10;;;21.60;33.70;;;;;;5049029;28;20100;-50
2021/04/26 04:55:08;;;;;;;0.47;0.10;;;21.60;33.70;;;;;;5056726;28;20067;-48
2021/04/26 04:57:34;;;;;;;0.88;0.10;;;21.60;33.70;;;;;;5034057;28;20033;-50
2021/04/26 05:00:00;;;;;;;0.40;0.10;;;21.60;33.70;;;;;;5040775;28;20032;-48
2021/04/26 05:02:26;;;;;;;1.02;0.13;;;21.60;33.70;;;;;;5040747;28;20069;-49
2021/04/26 05:04:52;;;;;;;1.50;0.10;;;21.60;33.70;;;;;;5038229;28;20057;-48
2021/04/26 05:07:18;;;;;;;5.13;0.20;;;21.60;33.70;;;;;;5046312;28;20139;-46
2021/04/26 05:09:43;;;;;;;0.77;0.10;;;21.60;33.70;;;;;;5046146;28;20097;-49
2021/04/26 05:12:09;;;;;;;0.20;0.10;;;21.60;33.70;;;;;;5045193;28;20037;-47
2021/04/26 05:14:35;;;;;;;0.77;0.10;;;21.60;33.70;;;;;;5046278;28;20108;-48
2021/04/26 05:17:01;;;;;;;0.40;0.10;;;21.60;33.70;;;;;;5042611;28;20055;-48
2021/04/26 05:19:27;;;;;;;0.70;0.08;;;21.60;33.70;;;;;;5038673;28;20482;-50
2021/04/26 05:21:53;;;;;;;0.32;0.10;;;21.60;33.70;;;;;;5044920;28;20029;-47
2021/04/26 05:24:19;;;;;;;0.40;0.10;;;21.50;33.70;;;;;;5045938;28;20105;-47
2021/04/26 05:26:44;;;;;;;0.50;0.20;;;21.50;33.70;;;;;;5034661;28;20105;-49
2021/04/26 05:29:10;;;;;;;0.43;0.10;;;21.50;33.70;;;;;;5048673;28;20516;-47
2021/04/26 05:31:35;;;;;;;0.30;0.10;;;21.50;33.70;;;;;;5042358;28;20033;-47
2021/04/26 05:34:01;;;;;;;0.50;0.13;;;21.50;33.70;;;;;;5049784;28;20458;-46
2021/04/26 05:36:26;;;;;;;0.73;0.10;;;21.50;33.70;;;;;;5043958;28;20021;-50
2021/04/26 05:38:52;;;;;;;0.52;0.03;;;21.50;33.70;;;;;;5056315;28;20040;-47
2021/04/26 05:41:18;;;;;;;0.40;0.10;;;21.50;33.70;;;;;;5056426;28;20535;-44
2021/04/26 05:43:43;;;;;;;1.85;0.10;;;21.50;33.70;;;;;;5041752;28;20043;-47
2021/04/26 05:46:09;;;;;;;0.32;0.10;;;21.50;33.70;;;;;;5051138;28;20029;-47
2021/04/26 05:48:35;;;;;;;1.40;0.10;;;21.50;33.70;;;;;;5043068;28;20028;-47
2021/04/26 05:51:00;;;;;;;0.50;0.10;;;21.50;33.70;;;;;;5050717;28;20104;-47
2021/04/26 05:53:26;;;;;;;0.30;0.10;;;21.60;33.70;;;;;;5055578;28;20090;-47
2021/04/26 05:55:52;;;;;;;0.52;0.10;;;21.70;33.70;;;;;;5054946;28;20418;-50
2021/04/26 05:58:17;;;;;;;1.73;0.13;;;21.80;33.60;;;;;;5051153;28;20039;-48
2021/04/26 06:00:43;;;;;;;0.35;0.20;;;22.00;33.50;;;;;;5051033;28;20037;-49
2021/04/26 06:03:08;;;;;;;0.30;0.10;;;22.10;33.30;;;;;;5048224;28;20029;-47
2021/04/26 06:05:34;;;;;;;0.28;0.10;;;22.20;33.10;;;;;;5049322;28;20032;-50
2021/04/26 06:08:00;;;;;;;0.28;0.10;;;22.30;33.00;;;;;;5048557;28;20033;-47
2021/04/26 06:10:26;;;;;;;0.30;0.10;;;22.40;32.90;;;;;;5043379;28;20032;-46
2021/04/26 06:12:52;;;;;;;3.72;0.20;;;22.40;32.80;;;;;;5043713;28;20532;-46
2021/04/26 06:15:17;;;;;;;0.43;0.10;;;22.50;32.80;;;;;;5048274;28;20037;-47
2021/04/26 06:17:43;;;;;;;0.40;0.10;;;22.50;33.30;;;;;;5047168;28;20041;-48
2021/04/26 06:20:09;;;;;;;0.63;0.10;;;22.60;32.80;;;;;;5049384;28;20075;-46
2021/04/26 06:22:35;;;;;;;1.00;0.10;;;22.60;32.70;;;;;;5048829;28;20104;-47
2021/04/26 06:25:00;;;;;;;0.50;0.10;;;22.60;32.70;;;;;;5047070;28;20116;-45
2021/04/26 06:27:26;;;;;;;0.80;0.20;;;22.60;32.70;;;;;;5049212;28;20599;-47
2021/04/26 06:29:51;;;;;;;0.30;0.10;;;22.70;32.80;;;;;;5046372;28;20079;-44
2021/04/26 06:32:17;;;;;;;0.65;0.10;;;22.70;32.80;;;;;;5048124;28;20040;-46
2021/04/26 06:34:43;;;;;;;0.40;0.10;;;22.60;32.70;;;;;;5040583;28;20029;-48
2021/04/26 06:37:08;;;;;;;0.40;0.10;;;22.60;32.70;;;;;;5035796;28;20044;-50
2021/04/26 06:39:34;;;;;;;0.60;0.10;;;22.70;32.80;;;;;;5041705;28;20112;-46
2021/04/26 06:42:00;;;;;;;0.40;0.00;;;22.60;32.70;;;;;;5042691;28;20410;-50
2021/04/26 06:44:27;;;;;;;0.28;0.05;;;22.60;32.60;;;;;;5047360;28;21187;-47
2021/04/26 06:46:53;;;;;;;0.60;0.10;;;22.60;32.60;;;;;;5044982;28;20041;-45
2021/04/26 06:49:20;;;;;;;1.58;0.10;;;22.60;32.60;;;;;;5039895;28;20105;-45
2021/04/26 06:51:47;;;;;;;1.45;0.17;;;22.60;32.70;;;;;;5045757;28;20033;-47
2021/04/26 06:54:13;;;;;;;1.15;0.22;;;22.60;32.60;;;;;;5042867;28;20170;-47
2021/04/26 06:56:39;;;;;;;0.60;0.22;;;22.60;32.70;;;;;;5045770;28;20025;-45
2021/04/26 06:59:04;;;;;;;1.38;0.13;;;22.60;32.80;;;;;;5046893;28;20040;-50
2021/04/26 07:01:30;;;;;;;1.42;0.20;;;22.50;32.80;;;;;;5036354;28;20037;-48
2021/04/26 07:03:55;;;;;;;1.27;0.00;;;22.50;32.80;;;;;;5043921;28;20037;-45
2021/04/26 07:06:21;;;;;;;0.52;0.10;;;22.50;32.90;;;;;;5029886;28;20026;-48
2021/04/26 07:08:47;;;;;;;1.10;0.10;;;22.50;32.90;;;;;;5045551;28;20025;-44
2021/04/26 07:11:13;;;;;;;0.20;0.10;;;22.50;33.00;;;;;;5048702;28;20511;-49
2021/04/26 07:13:38;;;;;;;0.30;0.10;;;22.50;33.00;;;;;;5043354;28;20053;-50
2021/04/26 07:16:04;;;;;;;2.28;0.20;;;22.50;33.00;;;;;;5045985;28;20037;-46
2021/04/26 07:18:30;;;;;;;0.30;0.10;;;22.50;33.00;;;;;;5043326;28;20033;-44
2021/04/26 07:20:55;;;;;;;2.05;0.10;;;22.50;33.10;;;;;;5047287;28;20067;-48
2021/04/26 07:23:21;;;;;;;1.10;0.10;;;22.40;33.00;;;;;;5044447;28;20393;-46
2021/04/26 07:25:47;;;;;;;2.65;0.25;;;22.50;33.10;;;;;;5035239;28;20022;-48
2021/04/26 07:28:12;;;;;;;0.95;0.20;;;22.50;33.10;;;;;;5031577;28;20029;-50
2021/04/26 07:30:38;;;;;;;1.15;0.10;;;22.50;33.10;;;;;;5047308;28;20017;-45
2021/04/26 07:33:04;;;;;;;1.20;0.28;;;22.50;33.10;;;;;;5038241;28;20513;-46
2021/04/26 07:35:30;;;;;;;1.23;0.20;;;22.50;33.10;;;;;;5045229;28;20535;-50
2021/04/26 07:37:55;;;;;;;0.93;0.20;;;22.50;33.00;;;;;;5045158;28;20025;-47
2021/04/26 07:40:21;;;;;;;0.50;0.10;;;22.60;33.00;;;;;;5045606;28;20029;-48
2021/04/26 07:42:47;;;;;;;0.88;0.20;;;22.60;33.00;;;;;;5042596;28;20031;-51
2021/04/26 07:45:19;;;;;;;0.88;0.20;;;22.70;33.40;;;;;;5039096;28;20690;-46
2021/04/26 07:47:45;;;;;;;1.50;0.30;;;22.70;33.60;;;;;;5039974;28;20606;-47
2021/04/26 07:50:11;;;;;;;1.20;0.25;;;22.70;33.70;;;;;;5043647;28;20051;-46
2021/04/26 07:52:37;;;;;;;1.27;0.10;;;22.70;33.70;;;;;;5045092;28;20738;-46
2021/04/26 07:55:03;;;;;;;0.88;0.20;;;22.70;33.80;;;;;;5043908;28;20112;-50
2021/04/26 07:57:31;;;;;;;1.40;0.40;;;22.80;33.90;;;;;;5045651;28;20024;-45
2021/04/26 07:59:56;;;;;;;1.70;0.40;;;22.70;33.80;;;;;;5043251;28;20696;-49
2021/04/26 08:02:22;;;;;;;1.10;0.30;;;22.70;33.70;;;;;;5047399;28;20065;-48
2021/04/26 08:04:48;;;;;;;0.93;0.30;;;22.70;34.10;;;;;;5046900;28;20029;-51
2021/04/26 08:07:13;;;;;;;0.93;0.28;;;22.70;34.20;;;;;;5045931;28;20037;-48
2021/04/26 08:09:39;;;;;;;1.13;0.40;;;22.80;34.30;;;;;;5039612;28;20017;-47
2021/04/26 08:12:05;;;;;;;2.35;0.30;;;22.80;34.30;;;;;;5037814;28;20033;-51
2021/04/26 08:14:30;;;;;;;1.27;0.40;;;22.80;34.30;;;;;;5041309;28;20067;-52
2021/04/26 08:16:56;;;;;;;1.30;0.40;;;22.80;34.60;;;;;;5044090;28;20114;-51
2021/04/26 08:19:21;;;;;;;1.20;0.60;;;22.80;34.70;;;;;;5046499;28;20040;-45
2021/04/26 08:21:48;;;;;;;1.55;0.70;;;22.80;34.80;;;;;;5039233;28;20044;-47
2021/04/26 08:24:14;;;;;;;2.67;1.00;;;22.80;34.90;;;;;;5043195;28;20028;-46
2021/04/26 08:26:39;;;;;;;2.45;0.63;;;22.80;35.00;;;;;;5045259;28;20028;-44
2021/04/26 08:29:06;;;;;;;1.13;0.45;;;22.80;35.20;;;;;;5045289;28;20044;-52
2021/04/26 08:31:31;;;;;;;1.40;0.47;;;22.90;34.80;;;;;;5044750;28;20108;-56
2021/04/26 08:33:57;;;;;;;2.63;0.57;;;22.90;35.10;;;;;;5045989;28;20501;-49
2021/04/26 08:36:22;;;;;;;1.60;0.60;;;22.90;35.00;;;;;;5041988;28;20028;-48
2021/04/26 08:38:49;;;;;;;3.15;0.73;;;22.90;35.40;;;;;;5046456;28;20128;-51
2021/04/26 08:41:16;;;;;;;2.58;1.00;;;22.90;35.70;;;;;;5041244;28;20175;-51
2021/04/26 08:43:45;;;;;;;2.28;1.27;;;22.90;36.00;;;;;;5045216;28;20025;-47
2021/04/26 08:46:11;;;;;;;3.35;1.38;;;22.90;36.20;;;;;;5044109;28;20025;-50
2021/04/26 08:48:37;;;;;;;3.38;1.45;;;23.00;36.60;;;;;;5044591;28;21644;-49
2021/04/26 08:51:05;;;;;;;3.00;1.95;;;23.00;36.70;;;;;;5041753;28;20047;-48
2021/04/26 08:53:32;;;;;;;5.47;2.00;;;23.00;36.80;;;;;;5046402;28;20056;-50
2021/04/26 08:55:57;;;;;;;2.75;1.58;;;23.00;36.90;;;;;;5044414;28;20021;-51
2021/04/26 08:58:23;;;;;;;2.45;1.52;;;23.00;37.00;;;;;;5047469;28;20087;-47
2021/04/26 09:00:49;;;;;;;4.97;1.80;;;23.00;37.00;;;;;;5044920;28;20558;-47
2021/04/26 09:03:15;;;;;;;1.95;1.73;;;23.00;37.20;;;;;;5047085;28;20025;-49
2021/04/26 09:05:44;;;;;;;2.13;1.35;;;23.10;37.00;;;;;;5047519;28;20047;-49
2021/04/26 09:08:12;;;;;;;1.70;1.33;;;23.10;36.90;;;;;;5051704;28;20095;-47
2021/04/26 09:10:52;;;;;;;2.05;1.38;;;23.10;37.00;;;;;;5051019;28;20020;-47
2021/04/26 09:13:39;;;;;;;4.70;1.95;;;23.10;37.40;;;;;;5048586;28;20409;-51
2021/04/26 09:16:21;;;;;;;2.53;1.85;;;23.10;37.40;;;;;;5047035;28;20044;-52
2021/04/26 09:18:56;;;;;;;2.13;1.42;;;23.20;37.50;;;;;;5042339;28;20032;-50
2021/04/26 09:21:30;;;;;;;2.63;1.60;;;23.20;37.70;;;;;;5045246;28;20033;-49
2021/04/26 09:24:24;;;;;;;3.15;1.67;;;23.20;37.50;;;;;;5051295;28;20025;-50
2021/04/26 09:27:11;;;;;;;4.15;1.42;;;23.20;37.10;;;;;;5048434;28;20033;-51
2021/04/26 09:29:38;;;;;;;2.58;1.45;;;23.20;37.40;;;;;;5045512;28;20060;-49
2021/04/26 09:32:11;;;;;;;2.35;1.67;;;23.20;37.40;;;;;;5045104;28;20036;-48
2021/04/26 09:34:51;;;;;;;3.90;1.30;;;23.20;37.50;;;;;;5046547;28;20029;-50
2021/04/26 09:37:22;;;;;;;1.70;1.35;;;23.30;37.60;;;;;;5049912;28;20041;-49
2021/04/26 09:40:13;;;;;;;2.83;2.10;;;23.30;37.80;;;;;;5049786;28;20078;-50
2021/04/26 09:42:46;;;;;;;2.60;1.53;;;23.30;37.90;;;;;;5046578;28;20057;-47
2021/04/26 09:45:33;;;;;;;2.70;1.25;;;23.30;37.90;;;;;;5048516;28;20548;-50
2021/04/26 09:48:14;;;;;;;2.35;1.35;;;23.30;38.00;;;;;;5049428;28;20025;-48
2021/04/26 09:50:52;;;;;;;4.47;1.45;;;23.30;38.00;;;;;;5049070;28;20025;-50
2021/04/26 09:53:18;;;;;;;3.42;1.42;;;23.30;37.90;;;;;;5049369;28;20029;-47
2021/04/26 09:55:43;;;;;;;2.53;1.60;;;23.40;38.10;;;;;;5050180;28;20025;-49
2021/04/26 09:58:10;;;;;;;4.60;1.42;;;23.40;38.10;;;;;;5049804;28;20509;-50
2021/04/26 10:00:36;;;;;;;2.25;1.20;;;23.40;38.10;;;;;;5048349;28;20513;-48
2021/04/26 10:03:02;;;;;;;2.45;1.33;;;23.40;37.90;;;;;;5050882;28;20037;-54
2021/04/26 10:05:28;;;;;;;3.10;1.08;;;23.50;38.10;;;;;;5047780;28;20039;-49
2021/04/26 10:07:55;;;;;;;3.80;1.38;;;23.50;38.00;;;;;;5045829;28;20491;-48
2021/04/26 10:10:20;;;;;;;2.95;1.00;;;23.50;37.60;;;;;;5049246;28;20433;-51
2021/04/26 10:12:46;;;;;;;2.70;1.27;;;23.50;37.70;;;;;;5045195;28;20022;-48
2021/04/26 10:15:13;;;;;;;3.25;1.20;;;23.50;37.70;;;;;;5048622;28;20033;-48
2021/04/26 10:17:42;;;;;;;1.33;1.05;;;23.60;37.80;;;;;;5087401;23;20123;-46
2021/04/26 10:20:09;;;;;;;1.90;1.30;;;23.60;37.90;;;;;;5050079;28;20154;-45
2021/04/26 10:22:43;;;;;;;6.38;1.20;;;23.60;37.70;;;;;;5038416;28;20445;-44
2021/04/26 10:25:13;;;;;;;3.35;1.20;;;23.60;37.80;;;;;;5046640;28;20018;-46
2021/04/26 10:27:40;;;;;;;2.35;1.40;;;23.60;37.90;;;;;;5041911;28;20049;-45
2021/04/26 10:30:12;;;;;;;3.88;1.67;;;23.60;38.00;;;;;;5029049;28;20032;-42
2021/04/26 10:32:59;;;;;;;4.53;1.83;;;23.70;37.60;;;;;;5040461;28;20029;-42
2021/04/26 10:35:41;;;;;;;3.42;1.42;;;23.70;37.80;;;;;;5027917;28;20043;-41
2021/04/26 10:38:37;;;;;;;4.13;1.23;;;23.70;38.20;;;;;;5032044;28;20055;-42
2021/04/26 10:41:05;;;;;;;3.17;1.80;;;23.70;38.10;;;;;;5038816;28;20032;-47
2021/04/26 10:43:33;;;;;;;2.55;1.40;;;23.70;38.00;;;;;;5036654;28;20052;-46
2021/04/26 10:46:24;;;;;;;2.85;1.73;;;23.70;37.90;;;;;;5032586;28;20031;-46
2021/04/26 10:49:08;;;;;;;;;;;23.70;38.30;;;;;;5039345;28;20118;-42
2021/04/26 10:51:38;;;;;;;2.30;1.50;;;23.80;37.70;;;;;;5029141;28;20311;-42
2021/04/26 10:54:04;;;;;;;4.28;2.78;;;23.70;38.20;;;;;;5037521;28;20040;-44
2021/04/26 10:56:32;;;;;;;2.45;1.50;;;23.70;37.80;;;;;;5034785;28;20132;-43
2021/04/26 10:59:16;;;;;;;3.17;1.58;;;23.70;37.60;;;;;;5027870;28;20067;-47
2021/04/26 11:01:48;;;;;;;6.82;2.78;;;23.60;35.10;;;;;;5033957;28;20030;-51
2021/04/26 11:04:29;;;;;;;2.20;2.00;;;23.60;35.90;;;;;;5020345;28;20079;-43
2021/04/26 11:07:04;;;;;;;3.90;2.13;;;23.60;37.30;;;;;;5023017;28;20029;-42
2021/04/26 11:09:36;;;;;;;3.35;2.05;;;23.70;37.90;;;;;;5032195;28;20029;-45
2021/04/26 11:12:04;;;;;;;3.70;2.70;;;23.70;38.20;;;;;;5027527;28;20095;-45
2021/04/26 11:14:30;;;;;;;9.73;1.95;;;23.70;38.30;;;;;;5030732;28;20039;-47
2021/04/26 11:17:02;;;;;;;3.28;2.33;;;23.70;38.40;;;;;;5040765;28;20037;-47
2021/04/26 11:19:29;;;;;;;9.38;2.08;;;23.70;38.90;;;;;;5024378;28;20053;-47
2021/04/26 11:21:56;;;;;;;2.83;2.00;;;23.70;39.20;;;;;;5035505;28;20052;-46
2021/04/26 11:24:36;;;;;;;3.03;1.92;;;23.70;39.20;;;;;;5034897;28;20021;-48
2021/04/26 11:27:08;;;;;;;;;;;23.80;39.60;;;;;;5032151;28;20101;-45
2021/04/26 11:29:53;;;;;;;2.53;1.85;;;23.80;39.70;;;;;;5022370;28;19975;-46
2021/04/26 11:32:20;;;;;;;3.15;2.30;;;23.80;39.80;;;;;;5024353;28;20092;-46
2021/04/26 11:34:46;;;;;;;2.45;1.77;;;23.80;39.90;;;;;;5033400;28;20562;-47
2021/04/26 11:37:12;;;;;;;2.00;1.77;;;23.80;39.90;;;;;;5040986;28;20108;-49
2021/04/26 11:39:42;;;;;;;2.95;1.70;;;23.80;39.90;;;;;;5027206;28;20028;-47
2021/04/26 11:42:22;;;;;;;2.72;2.08;;;23.80;39.90;;;;;;5034078;28;20037;-48
2021/04/26 11:44:49;;;;;;;3.83;1.77;;;23.80;39.70;;;;;;5038915;28;20475;-47
2021/04/26 11:47:17;;;;;;;1.65;1.25;;;23.90;39.90;;;;;;5037424;28;20052;-51
2021/04/26 11:49:45;;;;;;;2.80;1.98;;;23.90;39.70;;;;;;5034481;28;20032;-49
2021/04/26 11:52:18;;;;;;;2.08;1.92;;;23.90;40.10;;;;;;5040750;28;20112;-53
2021/04/26 11:54:47;;;;;;;3.58;1.75;;;23.90;40.00;;;;;;5028712;28;20039;-49
2021/04/26 11:57:22;;;;;;;5.43;1.50;;;23.90;40.00;;;;;;5026138;28;20025;-47
2021/04/26 11:59:58;;;;;;;1.95;1.70;;;24.00;40.10;;;;;;5027693;28;20025;-48
2021/04/26 12:02:28;;;;;;;2.20;2.00;;;24.00;40.00;;;;;;5033337;28;20750;-50
2021/04/26 12:04:56;;;;;;;2.60;1.73;;;24.00;40.00;;;;;;5029778;28;20021;-48
2021/04/26 12:07:22;;;;;;;2.10;1.88;;;24.00;40.00;;;;;;5028848;28;20287;-49
2021/04/26 12:09:58;;;;;;;2.83;1.92;;;24.00;39.80;;;;;;5033703;28;20056;-44
2021/04/26 12:12:27;;;;;;;1.60;1.30;;;24.00;39.80;;;;;;5026843;28;20146;-45
2021/04/26 12:15:01;;;;;;;1.60;1.50;;;24.00;39.40;;;;;;5034809;28;20461;-42
2021/04/26 12:17:27;;;;;;;2.05;1.35;;;24.00;39.60;;;;;;5031963;28;20044;-44
2021/04/26 12:19:54;;;;;;;1.80;1.58;;;24.00;39.10;;;;;;5031596;28;20044;-44
2021/04/26 12:22:23;;;;;;;1.75;1.27;;;24.00;38.70;;;;;;5039420;28;20144;-49
2021/04/26 12:24:50;;;;;;;2.03;1.42;;;23.90;38.00;;;;;;5035688;28;20096;-45
2021/04/26 12:27:19;;;;;;;3.28;1.48;;;24.00;38.20;;;;;;5038898;28;20086;-47
2021/04/26 12:29:46;;;;;;;3.97;1.13;;;24.00;38.40;;;;;;5028490;28;20749;-50
2021/04/26 12:32:18;;;;;;;1.90;1.27;;;24.10;38.60;;;;;;5031126;28;20040;-48
2021/04/26 12:35:00;;;;;;;1.77;1.63;;;24.10;38.70;;;;;;5025444;28;20379;-48
2021/04/26 12:37:36;;;;;;;2.35;1.33;;;24.10;38.80;;;;;;5025780;28;20132;-44
2021/04/26 12:40:17;;;;;;;1.30;0.98;;;24.10;38.80;;;;;;5031090;28;20113;-47
2021/04/26 12:42:44;;;;;;;;;;;24.20;38.90;;;;;;5025880;28;20533;-46
2021/04/26 12:45:15;;;;;;;1.17;0.63;;;24.20;38.80;;;;;;5028436;28;19924;-48
2021/04/26 12:47:50;;;;;;;1.92;0.77;;;24.20;37.30;;;;;;5027552;28;20026;-43
2021/04/26 12:50:20;;;;;;;2.00;1.10;;;24.30;38.50;;;;;;5032386;28;20026;-47
2021/04/26 12:53:22;;;;;;;2.47;1.17;;;24.20;38.60;;;;;;5028250;28;20037;-45
2021/04/26 12:56:00;;;;;;;3.08;0.93;;;24.20;38.30;;;;;;5028564;28;20021;-45